sensor_id;sensor_type;location;lat;lon;timestamp;pressure;altitude;pressure_sealevel;temperature;humidity
55550;BME280;41397;49.972;18.944;2023-05-24T00:00:50;101551.98;;;21.21;72.10
55550;BME280;41397;49.972;18.944;2023-05-24T00:03:58;101551.28;;;21.19;72.33
55550;BME280;41397;49.972;18.944;2023-05-24T00:07:00;101553.04;;;21.20;72.12
55550;BME280;41397;49.972;18.944;2023-05-24T00:10:05;101553.90;;;21.20;72.44
55550;BME280;41397;49.972;18.944;2023-05-24T00:13:07;101558.61;;;21.20;72.37
55550;BME280;41397;49.972;18.944;2023-05-24T00:16:08;101560.48;;;21.19;72.39
55550;BME280;41397;49.972;18.944;2023-05-24T00:19:09;101549.56;;;21.18;72.48
55550;BME280;41397;49.972;18.944;2023-05-24T00:22:11;101565.39;;;21.17;72.55
55550;BME280;41397;49.972;18.944;2023-05-24T00:25:14;101561.04;;;21.15;72.87
55550;BME280;41397;49.972;18.944;2023-05-24T00:28:15;101555.84;;;21.12;72.82
55550;BME280;41397;49.972;18.944;2023-05-24T00:31:16;101559.28;;;21.14;72.69
55550;BME280;41397;49.972;18.944;2023-05-24T00:34:18;101555.65;;;21.13;72.51
55550;BME280;41397;49.972;18.944;2023-05-24T00:37:20;101558.61;;;21.12;72.39
55550;BME280;41397;49.972;18.944;2023-05-24T00:40:22;101561.55;;;21.10;72.73
55550;BME280;41397;49.972;18.944;2023-05-24T00:43:23;101563.83;;;21.06;72.76
55550;BME280;41397;49.972;18.944;2023-05-24T00:46:27;101560.70;;;21.10;72.32
55550;BME280;41397;49.972;18.944;2023-05-24T00:49:29;101562.62;;;21.09;72.11
55550;BME280;41397;49.972;18.944;2023-05-24T00:52:31;101563.48;;;21.10;72.19
55550;BME280;41397;49.972;18.944;2023-05-24T00:55:34;101568.34;;;21.08;71.90
55550;BME280;41397;49.972;18.944;2023-05-24T00:58:37;101570.26;;;21.07;71.82
55550;BME280;41397;49.972;18.944;2023-05-24T01:01:39;101569.91;;;21.02;71.78
55550;BME280;41397;49.972;18.944;2023-05-24T01:04:42;101571.83;;;21.01;71.52
55550;BME280;41397;49.972;18.944;2023-05-24T01:07:58;101573.74;;;21.01;71.37
55550;BME280;41397;49.972;18.944;2023-05-24T01:14:37;101577.05;;;20.96;71.16
55550;BME280;41397;49.972;18.944;2023-05-24T01:17:50;101579.31;;;20.93;71.02
55550;BME280;41397;49.972;18.944;2023-05-24T01:20:58;101578.61;;;20.91;70.88
55550;BME280;41397;49.972;18.944;2023-05-24T01:27:14;101581.75;;;20.88;70.56
55550;BME280;41397;49.972;18.944;2023-05-24T01:30:16;101589.02;;;20.89;70.89
55550;BME280;41397;49.972;18.944;2023-05-24T01:33:18;101582.60;;;20.80;70.91
55550;BME280;41397;49.972;18.944;2023-05-24T01:36:19;101584.52;;;20.79;70.53
55550;BME280;41397;49.972;18.944;2023-05-24T01:39:23;101580.52;;;20.82;70.37
55550;BME280;41397;49.972;18.944;2023-05-24T01:42:35;101581.04;;;20.77;70.38
55550;BME280;41397;49.972;18.944;2023-05-24T01:45:44;101574.97;;;20.74;70.32
55550;BME280;41397;49.972;18.944;2023-05-24T01:52:10;101583.46;;;20.72;70.38
55550;BME280;41397;49.972;18.944;2023-05-24T01:55:16;101588.51;;;20.69;70.60
55550;BME280;41397;49.972;18.944;2023-05-24T01:58:20;101586.75;;;20.68;70.45
55550;BME280;41397;49.972;18.944;2023-05-24T02:01:23;101594.41;;;20.66;70.35
55550;BME280;41397;49.972;18.944;2023-05-24T02:04:25;101599.98;;;20.66;70.39
55550;BME280;41397;49.972;18.944;2023-05-24T02:07:26;101609.68;;;20.61;70.29
55550;BME280;41397;49.972;18.944;2023-05-24T02:10:28;101598.91;;;20.58;70.30
55550;BME280;41397;49.972;18.944;2023-05-24T02:13:29;101607.24;;;20.58;70.06
55550;BME280;41397;49.972;18.944;2023-05-24T02:16:30;101605.34;;;20.59;70.05
55550;BME280;41397;49.972;18.944;2023-05-24T02:19:33;101604.11;;;20.53;70.05
55550;BME280;41397;49.972;18.944;2023-05-24T02:22:36;101612.29;;;20.55;70.07
55550;BME280;41397;49.972;18.944;2023-05-24T02:25:38;101599.91;;;20.49;70.08
55550;BME280;41397;49.972;18.944;2023-05-24T02:28:39;101604.58;;;20.49;70.25
55550;BME280;41397;49.972;18.944;2023-05-24T02:31:41;101609.12;;;20.50;70.05
55550;BME280;41397;49.972;18.944;2023-05-24T02:34:42;101603.05;;;20.46;70.30
55550;BME280;41397;49.972;18.944;2023-05-24T02:37:44;101602.15;;;20.46;70.09
55550;BME280;41397;49.972;18.944;2023-05-24T02:40:45;101609.63;;;20.45;70.26
55550;BME280;41397;49.972;18.944;2023-05-24T02:43:47;101604.91;;;20.37;70.21
55550;BME280;41397;49.972;18.944;2023-05-24T02:46:48;101605.62;;;20.39;70.18
55550;BME280;41397;49.972;18.944;2023-05-24T02:49:50;101612.03;;;20.40;70.20
55550;BME280;41397;49.972;18.944;2023-05-24T02:52:51;101597.63;;;20.36;70.34
55550;BME280;41397;49.972;18.944;2023-05-24T02:55:53;101615.16;;;20.37;70.32
55550;BME280;41397;49.972;18.944;2023-05-24T02:58:54;101616.21;;;20.36;70.12
55550;BME280;41397;49.972;18.944;2023-05-24T03:01:56;101603.53;;;20.33;70.31
55550;BME280;41397;49.972;18.944;2023-05-24T03:04:58;101612.73;;;20.34;70.15
55550;BME280;41397;49.972;18.944;2023-05-24T03:07:59;101608.56;;;20.30;70.37
55550;BME280;41397;49.972;18.944;2023-05-24T03:11:03;101621.21;;;20.32;70.49
55550;BME280;41397;49.972;18.944;2023-05-24T03:14:05;101621.03;;;20.26;70.58
55550;BME280;41397;49.972;18.944;2023-05-24T03:17:06;101620.17;;;20.25;70.35
55550;BME280;41397;49.972;18.944;2023-05-24T03:20:08;101622.24;;;20.23;70.42
55550;BME280;41397;49.972;18.944;2023-05-24T03:23:11;101618.09;;;20.27;70.37
55550;BME280;41397;49.972;18.944;2023-05-24T03:26:12;101633.87;;;20.27;70.47
55550;BME280;41397;49.972;18.944;2023-05-24T03:29:14;101634.05;;;20.25;70.55
55550;BME280;41397;49.972;18.944;2023-05-24T03:32:15;101640.47;;;20.26;70.33
55550;BME280;41397;49.972;18.944;2023-05-24T03:35:17;101634.05;;;20.25;70.42
55550;BME280;41397;49.972;18.944;2023-05-24T03:38:18;101634.92;;;20.26;70.46
55550;BME280;41397;49.972;18.944;2023-05-24T03:41:20;101639.77;;;20.24;70.35
55550;BME280;41397;49.972;18.944;2023-05-24T03:44:23;101650.88;;;20.24;70.26
55550;BME280;41397;49.972;18.944;2023-05-24T03:47:24;101642.20;;;20.27;70.29
55550;BME280;41397;49.972;18.944;2023-05-24T03:50:25;101654.73;;;20.31;70.00
55550;BME280;41397;49.972;18.944;2023-05-24T03:53:27;101648.65;;;20.27;70.64
55550;BME280;41397;49.972;18.944;2023-05-24T03:56:31;101657.14;;;20.26;70.31
55550;BME280;41397;49.972;18.944;2023-05-24T03:59:32;101653.16;;;20.28;70.21
55550;BME280;41397;49.972;18.944;2023-05-24T04:02:33;101654.88;;;20.29;70.29
55550;BME280;41397;49.972;18.944;2023-05-24T04:05:40;101657.85;;;20.28;70.42
55550;BME280;41397;49.972;18.944;2023-05-24T04:08:41;101658.87;;;20.27;70.15
55550;BME280;41397;49.972;18.944;2023-05-24T04:11:43;101663.56;;;20.26;70.48
55550;BME280;41397;49.972;18.944;2023-05-24T04:14:44;101663.90;;;20.23;70.37
55550;BME280;41397;49.972;18.944;2023-05-24T04:17:46;101675.73;;;20.25;70.13
55550;BME280;41397;49.972;18.944;2023-05-24T04:20:47;101677.79;;;20.23;70.26
55550;BME280;41397;49.972;18.944;2023-05-24T04:23:49;101684.20;;;20.24;70.25
55550;BME280;41397;49.972;18.944;2023-05-24T04:26:51;101683.34;;;20.23;70.16
55550;BME280;41397;49.972;18.944;2023-05-24T04:29:52;101685.06;;;20.24;70.37
55550;BME280;41397;49.972;18.944;2023-05-24T04:32:55;101695.65;;;20.21;70.53
55550;BME280;41397;49.972;18.944;2023-05-24T04:35:57;101691.98;;;20.12;71.31
55550;BME280;41397;49.972;18.944;2023-05-24T04:39:01;101695.96;;;20.09;71.20
55550;BME280;41397;49.972;18.944;2023-05-24T04:45:22;101705.97;;;20.02;70.96
55550;BME280;41397;49.972;18.944;2023-05-24T04:48:24;101709.79;;;20.01;70.97
55550;BME280;41397;49.972;18.944;2023-05-24T04:51:26;101718.13;;;20.01;71.09
55550;BME280;41397;49.972;18.944;2023-05-24T04:54:34;101731.46;;;19.98;71.37
55550;BME280;41397;49.972;18.944;2023-05-24T04:57:35;101730.91;;;19.94;71.33
55550;BME280;41397;49.972;18.944;2023-05-24T05:00:40;101738.17;;;19.87;70.97
55550;BME280;41397;49.972;18.944;2023-05-24T05:03:50;101741.28;;;19.84;70.49
55550;BME280;41397;49.972;18.944;2023-05-24T05:07:25;101745.40;;;19.80;70.14
55550;BME280;41397;49.972;18.944;2023-05-24T05:14:07;101760.16;;;19.62;69.82
55550;BME280;41397;49.972;18.944;2023-05-24T05:20:31;101775.95;;;19.62;69.15
55550;BME280;41397;49.972;18.944;2023-05-24T05:23:34;101779.73;;;19.61;68.88
55550;BME280;41397;49.972;18.944;2023-05-24T05:26:39;101784.74;;;19.57;68.43
55550;BME280;41397;49.972;18.944;2023-05-24T05:29:41;101786.80;;;19.55;68.14
55550;BME280;41397;49.972;18.944;2023-05-24T05:32:43;101798.14;;;19.44;68.26
55550;BME280;41397;49.972;18.944;2023-05-24T05:35:44;101804.88;;;19.41;68.19
55550;BME280;41397;49.972;18.944;2023-05-24T05:38:47;101803.94;;;19.33;67.96
55550;BME280;41397;49.972;18.944;2023-05-24T05:41:48;101811.71;;;19.29;67.83
55550;BME280;41397;49.972;18.944;2023-05-24T05:44:49;101818.59;;;19.25;68.17
55550;BME280;41397;49.972;18.944;2023-05-24T05:47:52;101816.45;;;19.19;67.84
55550;BME280;41397;49.972;18.944;2023-05-24T05:50:55;101824.59;;;19.20;67.74
55550;BME280;41397;49.972;18.944;2023-05-24T05:53:56;101826.35;;;19.21;67.78
55550;BME280;41397;49.972;18.944;2023-05-24T05:56:58;101832.45;;;19.25;67.52
55550;BME280;41397;49.972;18.944;2023-05-24T06:00:00;101828.72;;;19.16;67.50
55550;BME280;41397;49.972;18.944;2023-05-24T06:03:02;101833.09;;;19.19;66.93
55550;BME280;41397;49.972;18.944;2023-05-24T06:06:04;101834.82;;;19.20;66.40
55550;BME280;41397;49.972;18.944;2023-05-24T06:09:06;101837.04;;;19.16;66.43
55550;BME280;41397;49.972;18.944;2023-05-24T06:12:08;101842.91;;;19.13;66.47
55550;BME280;41397;49.972;18.944;2023-05-24T06:15:10;101850.18;;;19.14;66.16
55550;BME280;41397;49.972;18.944;2023-05-24T06:18:13;101851.05;;;19.15;65.90
55550;BME280;41397;49.972;18.944;2023-05-24T06:21:22;101848.04;;;19.08;65.61
55550;BME280;41397;49.972;18.944;2023-05-24T06:24:23;101851.68;;;19.08;65.36
55550;BME280;41397;49.972;18.944;2023-05-24T06:27:25;101855.63;;;19.06;65.41
55550;BME280;41397;49.972;18.944;2023-05-24T06:30:28;101865.41;;;19.10;65.24
55550;BME280;41397;49.972;18.944;2023-05-24T06:33:30;101865.23;;;19.12;65.19
55550;BME280;41397;49.972;18.944;2023-05-24T06:36:35;101870.95;;;19.10;65.16
55550;BME280;41397;49.972;18.944;2023-05-24T06:39:42;101877.05;;;19.14;65.01
55550;BME280;41397;49.972;18.944;2023-05-24T06:42:45;101894.72;;;19.13;65.02
55550;BME280;41397;49.972;18.944;2023-05-24T06:45:46;101901.45;;;19.10;65.22
55550;BME280;41397;49.972;18.944;2023-05-24T06:49:02;101907.41;;;19.15;65.12
55550;BME280;41397;49.972;18.944;2023-05-24T06:52:20;101898.91;;;19.17;64.64
55550;BME280;41397;49.972;18.944;2023-05-24T06:55:27;101906.52;;;19.15;64.72
55550;BME280;41397;49.972;18.944;2023-05-24T07:02:08;101916.00;;;19.12;64.21
55550;BME280;41397;49.972;18.944;2023-05-24T07:05:10;101917.19;;;19.10;64.51
55550;BME280;41397;49.972;18.944;2023-05-24T07:08:14;101916.70;;;18.96;64.40
55550;BME280;41397;49.972;18.944;2023-05-24T07:11:16;101917.56;;;18.97;64.31
55550;BME280;41397;49.972;18.944;2023-05-24T07:14:17;101930.38;;;18.98;63.71
55550;BME280;41397;49.972;18.944;2023-05-24T07:17:19;101941.48;;;18.98;63.71
55550;BME280;41397;49.972;18.944;2023-05-24T07:20:21;101942.02;;;19.01;63.58
55550;BME280;41397;49.972;18.944;2023-05-24T07:23:22;101943.80;;;19.02;63.56
55550;BME280;41397;49.972;18.944;2023-05-24T07:26:24;101948.30;;;19.03;64.09
55550;BME280;41397;49.972;18.944;2023-05-24T07:29:26;101955.89;;;19.01;63.87
55550;BME280;41397;49.972;18.944;2023-05-24T07:32:28;101961.75;;;18.98;63.74
55550;BME280;41397;49.972;18.944;2023-05-24T07:35:29;101957.38;;;18.96;63.87
55550;BME280;41397;49.972;18.944;2023-05-24T07:38:32;101965.55;;;18.97;63.89
55550;BME280;41397;49.972;18.944;2023-05-24T07:41:35;101974.01;;;18.96;64.09
55550;BME280;41397;49.972;18.944;2023-05-24T07:48:10;101973.62;;;18.91;64.54
55550;BME280;41397;49.972;18.944;2023-05-24T07:51:12;101972.28;;;18.95;64.03
55550;BME280;41397;49.972;18.944;2023-05-24T07:54:42;101973.14;;;18.95;64.36
55550;BME280;41397;49.972;18.944;2023-05-24T07:58:08;101978.08;;;19.01;64.07
55550;BME280;41397;49.972;18.944;2023-05-24T08:01:40;101987.73;;;18.97;63.48
55550;BME280;41397;49.972;18.944;2023-05-24T08:08:34;101993.60;;;18.84;62.52
55550;BME280;41397;49.972;18.944;2023-05-24T08:12:11;101991.42;;;18.88;62.84
55550;BME280;41397;49.972;18.944;2023-05-24T08:15:39;101999.13;;;18.94;63.10
55550;BME280;41397;49.972;18.944;2023-05-24T08:19:04;101999.69;;;18.98;62.02
55550;BME280;41397;49.972;18.944;2023-05-24T08:22:40;102005.23;;;18.98;62.06
55550;BME280;41397;49.972;18.944;2023-05-24T08:26:13;102009.61;;;19.00;61.81
55550;BME280;41397;49.972;18.944;2023-05-24T08:33:18;102014.71;;;19.05;61.21
55550;BME280;41397;49.972;18.944;2023-05-24T08:40:13;102030.17;;;19.07;60.96
55550;BME280;41397;49.972;18.944;2023-05-24T08:43:34;102038.07;;;19.02;61.13
55550;BME280;41397;49.972;18.944;2023-05-24T08:46:36;102040.84;;;19.02;61.06
55550;BME280;41397;49.972;18.944;2023-05-24T08:49:40;102047.55;;;19.00;61.04
55550;BME280;41397;49.972;18.944;2023-05-24T08:52:48;102060.84;;;18.96;61.25
55550;BME280;41397;49.972;18.944;2023-05-24T08:55:50;102064.80;;;18.94;61.29
55550;BME280;41397;49.972;18.944;2023-05-24T08:58:55;102068.73;;;18.91;61.04
55550;BME280;41397;49.972;18.944;2023-05-24T09:01:57;102077.19;;;18.90;61.37
55550;BME280;41397;49.972;18.944;2023-05-24T09:05:00;102071.08;;;18.86;61.55
55550;BME280;41397;49.972;18.944;2023-05-24T09:08:02;102077.49;;;18.87;61.87
55550;BME280;41397;49.972;18.944;2023-05-24T09:11:06;102087.84;;;18.84;61.95
55550;BME280;41397;49.972;18.944;2023-05-24T09:14:09;102081.86;;;18.79;61.88
55550;BME280;41397;49.972;18.944;2023-05-24T09:17:11;102079.39;;;18.76;61.69
55550;BME280;41397;49.972;18.944;2023-05-24T09:20:15;102097.15;;;18.74;61.99
55550;BME280;41397;49.972;18.944;2023-05-24T09:23:18;102090.17;;;18.70;61.63
55550;BME280;41397;49.972;18.944;2023-05-24T09:26:21;102090.30;;;18.68;61.72
55550;BME280;41397;49.972;18.944;2023-05-24T09:29:25;102087.53;;;18.68;61.82
55550;BME280;41397;49.972;18.944;2023-05-24T09:32:32;102097.91;;;18.66;61.86
55550;BME280;41397;49.972;18.944;2023-05-24T09:35:34;102102.26;;;18.69;61.94
55550;BME280;41397;49.972;18.944;2023-05-24T09:38:36;102113.08;;;18.72;61.61
55550;BME280;41397;49.972;18.944;2023-05-24T09:41:38;102108.23;;;18.74;61.44
55550;BME280;41397;49.972;18.944;2023-05-24T09:44:43;102110.31;;;18.72;61.25
55550;BME280;41397;49.972;18.944;2023-05-24T09:47:47;102114.13;;;18.80;61.26
55550;BME280;41397;49.972;18.944;2023-05-24T09:54:04;102114.25;;;18.79;61.25
55550;BME280;41397;49.972;18.944;2023-05-24T09:57:05;102118.34;;;18.84;61.10
55550;BME280;41397;49.972;18.944;2023-05-24T10:00:13;102114.40;;;18.87;61.10
55550;BME280;41397;49.972;18.944;2023-05-24T10:03:27;102119.93;;;18.87;60.46
55550;BME280;41397;49.972;18.944;2023-05-24T10:06:33;102111.48;;;18.89;60.54
55550;BME280;41397;49.972;18.944;2023-05-24T10:09:38;102120.55;;;18.91;60.61
55550;BME280;41397;49.972;18.944;2023-05-24T10:12:55;102111.02;;;18.93;60.56
55550;BME280;41397;49.972;18.944;2023-05-24T10:15:58;102120.80;;;18.97;60.81
55550;BME280;41397;49.972;18.944;2023-05-24T10:19:19;102121.08;;;19.04;60.50
55550;BME280;41397;49.972;18.944;2023-05-24T10:22:29;102134.06;;;19.13;60.51
55550;BME280;41397;49.972;18.944;2023-05-24T10:25:45;102126.62;;;19.14;59.70
55550;BME280;41397;49.972;18.944;2023-05-24T10:29:03;102125.28;;;19.18;59.87
55550;BME280;41397;49.972;18.944;2023-05-24T10:32:12;102129.09;;;19.17;59.74
55550;BME280;41397;49.972;18.944;2023-05-24T10:35:31;102126.32;;;19.17;59.95
55550;BME280;41397;49.972;18.944;2023-05-24T10:38:48;102136.23;;;19.19;59.69
55550;BME280;41397;49.972;18.944;2023-05-24T10:41:56;102143.24;;;19.23;59.79
55550;BME280;41397;49.972;18.944;2023-05-24T10:48:32;102136.80;;;19.23;60.33
55550;BME280;41397;49.972;18.944;2023-05-24T10:51:36;102141.04;;;19.27;59.97
55550;BME280;41397;49.972;18.944;2023-05-24T10:57:54;102136.79;;;19.33;60.09
55550;BME280;41397;49.972;18.944;2023-05-24T11:01:02;102135.17;;;19.40;59.89
55550;BME280;41397;49.972;18.944;2023-05-24T11:04:14;102138.52;;;19.43;60.21
55550;BME280;41397;49.972;18.944;2023-05-24T11:07:17;102138.34;;;19.45;60.47
55550;BME280;41397;49.972;18.944;2023-05-24T11:13:37;102137.17;;;19.47;60.43
55550;BME280;41397;49.972;18.944;2023-05-24T11:16:39;102142.72;;;19.47;60.31
55550;BME280;41397;49.972;18.944;2023-05-24T11:22:57;102142.70;;;19.57;60.02
55550;BME280;41397;49.972;18.944;2023-05-24T11:36:19;102151.16;;;19.56;60.13
55550;BME280;41397;49.972;18.944;2023-05-24T11:43:07;102149.31;;;19.46;60.08
55550;BME280;41397;49.972;18.944;2023-05-24T11:46:09;102142.89;;;19.46;59.92
55550;BME280;41397;49.972;18.944;2023-05-24T11:49:16;102152.38;;;19.43;60.15
55550;BME280;41397;49.972;18.944;2023-05-24T11:52:28;102141.42;;;19.42;60.00
55550;BME280;41397;49.972;18.944;2023-05-24T11:55:37;102141.73;;;19.39;59.91
55550;BME280;41397;49.972;18.944;2023-05-24T11:58:48;102143.76;;;19.46;60.50
55550;BME280;41397;49.972;18.944;2023-05-24T12:01:57;102155.11;;;19.53;60.71
55550;BME280;41397;49.972;18.944;2023-05-24T12:05:12;102148.98;;;19.59;60.05
55550;BME280;41397;49.972;18.944;2023-05-24T12:08:20;102143.85;;;19.64;59.50
55550;BME280;41397;49.972;18.944;2023-05-24T12:15:06;102151.30;;;19.73;59.78
55550;BME280;41397;49.972;18.944;2023-05-24T12:21:46;102149.18;;;19.85;59.58
55550;BME280;41397;49.972;18.944;2023-05-24T12:28:26;102139.23;;;19.92;59.13
55550;BME280;41397;49.972;18.944;2023-05-24T12:31:42;102150.74;;;19.98;59.49
55550;BME280;41397;49.972;18.944;2023-05-24T12:34:44;102145.20;;;19.98;59.76
55550;BME280;41397;49.972;18.944;2023-05-24T12:37:45;102138.77;;;19.97;59.28
55550;BME280;41397;49.972;18.944;2023-05-24T12:40:48;102143.70;;;20.03;59.33
55550;BME280;41397;49.972;18.944;2023-05-24T12:43:53;102136.37;;;20.02;59.10
55550;BME280;41397;49.972;18.944;2023-05-24T12:46:56;102137.42;;;20.01;59.22
55550;BME280;41397;49.972;18.944;2023-05-24T12:50:12;102142.24;;;19.99;58.54
55550;BME280;41397;49.972;18.944;2023-05-24T12:53:36;102135.67;;;20.00;59.45
55550;BME280;41397;49.972;18.944;2023-05-24T12:56:41;102141.92;;;20.02;58.92
55550;BME280;41397;49.972;18.944;2023-05-24T13:03:08;102137.00;;;19.96;59.22
55550;BME280;41397;49.972;18.944;2023-05-24T13:06:09;102134.40;;;19.94;59.24
55550;BME280;41397;49.972;18.944;2023-05-24T13:09:20;102147.55;;;19.92;59.24
55550;BME280;41397;49.972;18.944;2023-05-24T13:12:39;102143.48;;;19.87;58.72
55550;BME280;41397;49.972;18.944;2023-05-24T13:15:42;102130.89;;;19.92;59.38
55550;BME280;41397;49.972;18.944;2023-05-24T13:18:44;102132.63;;;19.93;58.94
55550;BME280;41397;49.972;18.944;2023-05-24T13:21:52;102134.50;;;20.03;59.09
55550;BME280;41397;49.972;18.944;2023-05-24T13:24:54;102142.20;;;20.09;58.59
55550;BME280;41397;49.972;18.944;2023-05-24T13:28:01;102133.69;;;20.10;58.69
55550;BME280;41397;49.972;18.944;2023-05-24T13:31:03;102145.21;;;20.15;58.66
55550;BME280;41397;49.972;18.944;2023-05-24T13:34:05;102136.74;;;20.17;58.43
55550;BME280;41397;49.972;18.944;2023-05-24T13:37:08;102137.47;;;20.19;58.45
55550;BME280;41397;49.972;18.944;2023-05-24T13:40:10;102130.87;;;20.20;58.97
55550;BME280;41397;49.972;18.944;2023-05-24T13:43:12;102133.51;;;20.22;59.09
55550;BME280;41397;49.972;18.944;2023-05-24T13:46:14;102130.01;;;20.20;58.61
55550;BME280;41397;49.972;18.944;2023-05-24T13:49:19;102128.82;;;20.22;59.12
55550;BME280;41397;49.972;18.944;2023-05-24T13:52:20;102129.84;;;20.21;58.62
55550;BME280;41397;49.972;18.944;2023-05-24T13:55:22;102133.79;;;20.18;58.16
55550;BME280;41397;49.972;18.944;2023-05-24T13:58:24;102135.14;;;20.14;58.57
55550;BME280;41397;49.972;18.944;2023-05-24T14:01:26;102136.74;;;20.17;59.00
55550;BME280;41397;49.972;18.944;2023-05-24T14:04:28;102131.51;;;20.14;59.19
55550;BME280;41397;49.972;18.944;2023-05-24T14:07:31;102126.64;;;20.16;59.23
55550;BME280;41397;49.972;18.944;2023-05-24T14:10:34;102122.45;;;20.12;58.99
55550;BME280;41397;49.972;18.944;2023-05-24T14:13:43;102129.91;;;20.11;59.06
55550;BME280;41397;49.972;18.944;2023-05-24T14:16:44;102125.99;;;20.04;57.81
55550;BME280;41397;49.972;18.944;2023-05-24T14:23:29;102122.45;;;20.12;58.92
55550;BME280;41397;49.972;18.944;2023-05-24T14:26:36;102120.70;;;20.11;59.17
55550;BME280;41397;49.972;18.944;2023-05-24T14:29:37;102119.43;;;20.05;58.94
55550;BME280;41397;49.972;18.944;2023-05-24T14:32:44;102135.50;;;20.02;59.17
55550;BME280;41397;49.972;18.944;2023-05-24T14:36:04;102133.59;;;20.02;58.92
55550;BME280;41397;49.972;18.944;2023-05-24T14:39:07;102130.68;;;20.04;58.83
55550;BME280;41397;49.972;18.944;2023-05-24T14:42:09;102129.65;;;20.05;58.99
55550;BME280;41397;49.972;18.944;2023-05-24T14:45:11;102131.00;;;20.01;58.97
55550;BME280;41397;49.972;18.944;2023-05-24T14:48:24;102126.30;;;20.01;59.29
55550;BME280;41397;49.972;18.944;2023-05-24T15:56:03;102160.88;;;19.89;63.69
55550;BME280;41397;49.972;18.944;2023-05-24T15:59:05;102168.48;;;20.14;62.82
55550;BME280;41397;49.972;18.944;2023-05-24T16:02:12;102174.15;;;20.40;61.71
55550;BME280;41397;49.972;18.944;2023-05-24T16:05:14;102168.74;;;20.67;61.22
55550;BME280;41397;49.972;18.944;2023-05-24T16:08:15;102161.68;;;20.90;59.50
55550;BME280;41397;49.972;18.944;2023-05-24T16:11:17;102167.93;;;21.10;58.92
55550;BME280;41397;49.972;18.944;2023-05-24T16:14:20;102172.19;;;21.22;56.70
55550;BME280;41397;49.972;18.944;2023-05-24T16:17:21;102176.46;;;21.35;57.74
55550;BME280;41397;49.972;18.944;2023-05-24T16:20:23;102174.49;;;21.45;57.40
55550;BME280;41397;49.972;18.944;2023-05-24T16:23:24;102174.22;;;21.56;56.74
55550;BME280;41397;49.972;18.944;2023-05-24T16:26:28;102167.31;;;21.68;56.72
55550;BME280;41397;49.972;18.944;2023-05-24T16:29:30;102162.51;;;21.79;56.31
55550;BME280;41397;49.972;18.944;2023-05-24T16:32:32;102176.82;;;21.84;54.96
55550;BME280;41397;49.972;18.944;2023-05-24T16:35:33;102178.40;;;21.86;54.72
55550;BME280;41397;49.972;18.944;2023-05-24T16:38:35;102178.73;;;21.83;55.43
55550;BME280;41397;49.972;18.944;2023-05-24T16:43:16;102192.09;;;21.80;54.11
55550;BME280;41397;49.972;18.944;2023-05-24T16:46:17;102203.18;;;21.71;54.85
55550;BME280;41397;49.972;18.944;2023-05-24T16:49:19;102206.48;;;21.67;55.11
55550;BME280;41397;49.972;18.944;2023-05-24T16:52:23;102217.94;;;21.64;55.42
55550;BME280;41397;49.972;18.944;2023-05-24T16:55:25;102214.59;;;21.60;55.67
55550;BME280;41397;49.972;18.944;2023-05-24T16:58:27;102219.30;;;21.60;55.94
55550;BME280;41397;49.972;18.944;2023-05-24T17:01:29;102223.84;;;21.61;55.40
55550;BME280;41397;49.972;18.944;2023-05-24T17:04:33;102232.49;;;21.58;55.03
55550;BME280;41397;49.972;18.944;2023-05-24T17:07:35;102226.93;;;21.58;55.93
55550;BME280;41397;49.972;18.944;2023-05-24T17:10:36;102233.69;;;21.55;55.88
55550;BME280;41397;49.972;18.944;2023-05-24T17:13:38;102220.10;;;21.52;55.07
55550;BME280;41397;49.972;18.944;2023-05-24T17:16:39;102231.41;;;21.50;55.41
55550;BME280;41397;49.972;18.944;2023-05-24T17:19:41;102223.40;;;21.47;56.18
55550;BME280;41397;49.972;18.944;2023-05-24T17:22:43;102236.26;;;21.48;56.44
55550;BME280;41397;49.972;18.944;2023-05-24T17:25:45;102230.55;;;21.50;55.95
55550;BME280;41397;49.972;18.944;2023-05-24T17:28:47;102229.65;;;21.49;56.12
55550;BME280;41397;49.972;18.944;2023-05-24T17:31:48;102226.72;;;21.51;56.03
55550;BME280;41397;49.972;18.944;2023-05-24T17:34:50;102228.96;;;21.47;54.75
55550;BME280;41397;49.972;18.944;2023-05-24T17:37:51;102233.63;;;21.47;56.24
55550;BME280;41397;49.972;18.944;2023-05-24T17:40:55;102242.70;;;21.49;55.72
55550;BME280;41397;49.972;18.944;2023-05-24T17:43:59;102243.41;;;21.51;55.57
55550;BME280;41397;49.972;18.944;2023-05-24T17:47:00;102243.27;;;21.53;55.83
55550;BME280;41397;49.972;18.944;2023-05-24T17:50:02;102253.50;;;21.52;55.15
55550;BME280;41397;49.972;18.944;2023-05-24T17:53:03;102252.48;;;21.53;56.53
55550;BME280;41397;49.972;18.944;2023-05-24T17:56:06;102257.55;;;21.58;55.77
55550;BME280;41397;49.972;18.944;2023-05-24T17:59:08;102250.78;;;21.60;55.38
55550;BME280;41397;49.972;18.944;2023-05-24T18:02:10;102258.27;;;21.60;56.02
55550;BME280;41397;49.972;18.944;2023-05-24T18:05:11;102269.07;;;21.63;55.73
55550;BME280;41397;49.972;18.944;2023-05-24T18:08:13;102268.59;;;21.67;55.52
55550;BME280;41397;49.972;18.944;2023-05-24T18:11:15;102267.73;;;21.67;55.65
55550;BME280;41397;49.972;18.944;2023-05-24T18:14:17;102272.43;;;21.66;55.42
55550;BME280;41397;49.972;18.944;2023-05-24T18:17:20;102265.27;;;21.64;55.89
55550;BME280;41397;49.972;18.944;2023-05-24T18:20:21;102267.88;;;21.65;55.20
55550;BME280;41397;49.972;18.944;2023-05-24T18:23:22;102272.58;;;21.65;56.04
55550;BME280;41397;49.972;18.944;2023-05-24T18:26:24;102270.84;;;21.64;55.04